Time,TemperatureF,DewpointF,PressureIn,WindDirection,WindDirectionDegrees,WindSpeedMPH,WindSpeedGustMPH,Humidity,HourlyPrecipIn,Conditions,Clouds,dailyrainin,SoftwareType,DateUTC
2013-01-25 00:00:00,11.7,5.9,30.60,NE,48,0.0,2.0,77,0.00,RMK !SN!,RMK !SN!,0.00,WUHU216DAVISVP2,2013-01-25 05:00:00,
2013-01-25 00:01:00,11.7,5.9,30.60,NE,48,0.0,2.0,77,0.00,RMK !SN!,RMK !SN!,0.00,WUHU216DAVISVP2,2013-01-25 05:01:00,
2013-01-25 00:03:00,11.7,5.9,30.60,NE,41,0.0,2.0,77,0.00,RMK !SN!,RMK !SN!,0.00,WUHU216DAVISVP2,2013-01-25 05:03:00,
2013-01-25 00:08:00,11.8,6.0,30.60,East,85,0.0,3.0,77,0.00,RMK !SN!,RMK !SN!,0.00,WUHU216DAVISVP2,2013-01-25 05:08:00,
2013-01-25 00:13:00,11.7,5.9,30.59,SW,235,2.0,3.0,77,0.00,RMK !SN!,RMK !SN!,0.00,WUHU216DAVISVP2,2013-01-25 05:13:00,
2013-01-25 00:18:00,11.8,5.7,30.59,NE,49,1.0,3.0,76,0.00,RMK !SN!,RMK !SN!,0.00,WUHU216DAVISVP2,2013-01-25 05:18:00,
2013-01-25 00:23:00,11.8,5.7,30.59,East,82,0.0,3.0,76,0.00,RMK !SN!,RMK !SN!,0.00,WUHU216DAVISVP2,2013-01-25 05:23:00,
2013-01-25 00:28:00,11.9,5.5,30.59,ENE,71,1.0,3.0,75,0.00,RMK !SN!,RMK !SN!,0.00,WUHU216DAVISVP2,2013-01-25 05:28:00,
2013-01-25 00:33:00,11.8,5.4,30.59,NNW,328,0.0,4.0,75,0.00,RMK !SN!,RMK !SN!,0.00,WUHU216DAVISVP2,2013-01-25 05:33:00,
2013-01-25 00:38:00,11.8,5.4,30.58,East,86,0.0,4.0,75,0.00,RMK !SN!,RMK !SN!,0.00,WUHU216DAVISVP2,2013-01-25 05:38:00,
2013-01-25 00:43:00,11.8,5.7,30.58,East,86,0.0,4.0,76,0.00,RMK !SN!,RMK !SN!,0.00,WUHU216DAVISVP2,2013-01-25 05:43:00,
2013-01-25 00:48:00,11.8,5.7,30.58,ENE,77,0.0,4.0,76,0.00,RMK !SN!,RMK !SN!,0.00,WUHU216DAVISVP2,2013-01-25 05:48:00,
2013-01-25 00:53:00,11.8,5.7,30.58,NE,42,2.0,2.0,76,0.00,RMK !SN!,RMK !SN!,0.00,WUHU216DAVISVP2,2013-01-25 05:53:00,
2013-01-25 00:58:00,11.8,5.7,30.58,NE,34,0.0,3.0,76,0.00,RMK !SN!,RMK !SN!,0.00,WUHU216DAVISVP2,2013-01-25 05:58:00,
2013-01-25 01:03:00,11.8,5.7,30.57,NW,318,2.0,3.0,76,0.00,RMK !SN!,RMK !SN!,0.00,WUHU216DAVISVP2,2013-01-25 06:03:00,
2013-01-25 01:08:00,11.8,5.7,30.57,NW,326,2.0,4.0,76,0.00,RMK !SN!,RMK !SN!,0.00,WUHU216DAVISVP2,2013-01-25 06:08:00,
2013-01-25 01:13:00,11.8,5.7,30.57,NE,35,1.0,4.0,76,0.00,RMK !SN!,RMK !SN!,0.00,WUHU216DAVISVP2,2013-01-25 06:13:00,
2013-01-25 01:18:00,11.8,5.7,30.57,North,353,0.0,4.0,76,0.00,RMK !SN!,RMK !SN!,0.00,WUHU216DAVISVP2,2013-01-25 06:18:00,
2013-01-25 01:23:00,11.9,5.8,30.57,NE,54,0.0,4.0,76,0.00,RMK !SN!,RMK !SN!,0.00,WUHU216DAVISVP2,2013-01-25 06:23:00,
2013-01-25 01:28:00,11.9,5.8,30.57,ENE,63,2.0,3.0,76,0.00,RMK !SN!,RMK !SN!,0.00,WUHU216DAVISVP2,2013-01-25 06:28:00,
2013-01-25 01:33:00,11.9,5.8,30.57,NE,39,1.0,4.0,76,0.00,RMK !SN!,RMK !SN!,0.00,WUHU216DAVISVP2,2013-01-25 06:33:00,
2013-01-25 01:38:00,11.9,5.8,30.57,ENE,60,2.0,4.0,76,0.00,RMK !SN!,RMK !SN!,0.00,WUHU216DAVISVP2,2013-01-25 06:38:00,
2013-01-25 01:43:00,11.9,5.8,30.56,NW,326,0.0,3.0,76,0.00,RMK !SN!,RMK !SN!,0.00,WUHU216DAVISVP2,2013-01-25 06:43:00,
2013-01-25 01:48:00,11.9,6.1,30.56,NNE,18,0.0,3.0,77,0.00,RMK !SN!,RMK !SN!,0.00,WUHU216DAVISVP2,2013-01-25 06:48:00,
2013-01-25 01:53:00,11.9,6.1,30.56,ESE,115,0.0,3.0,77,0.00,RMK !SN!,RMK !SN!,0.00,WUHU216DAVISVP2,2013-01-25 06:53:00,
2013-01-25 01:58:00,11.9,6.1,30.56,East,98,0.0,3.0,77,0.00,RMK !SN!,RMK !SN!,0.00,WUHU216DAVISVP2,2013-01-25 06:58:00,
2013-01-25 02:03:00,12.0,6.2,30.56,ENE,58,0.0,3.0,77,0.00,RMK !SN!,RMK !SN!,0.00,WUHU216DAVISVP2,2013-01-25 07:03:00,
2013-01-25 02:08:00,12.0,6.2,30.56,West,259,2.0,3.0,77,0.00,RMK !SN!,RMK !SN!,0.00,WUHU216DAVISVP2,2013-01-25 07:08:00,
2013-01-25 02:13:00,12.0,5.9,30.56,NW,323,0.0,3.0,76,0.00,RMK !SN!,RMK !SN!,0.00,WUHU216DAVISVP2,2013-01-25 07:13:00,
2013-01-25 02:18:00,12.0,5.9,30.56,East,82,0.0,3.0,76,0.00,RMK !SN!,RMK !SN!,0.00,WUHU216DAVISVP2,2013-01-25 07:18:00,
2013-01-25 02:23:00,12.0,5.9,30.55,WNW,296,0.0,3.0,76,0.00,RMK !SN!,RMK !SN!,0.00,WUHU216DAVISVP2,2013-01-25 07:23:00,
2013-01-25 02:28:00,12.1,6.0,30.55,NNE,31,0.0,4.0,76,0.00,RMK !SN!,RMK !SN!,0.00,WUHU216DAVISVP2,2013-01-25 07:28:00,
2013-01-25 02:33:00,12.1,6.0,30.55,ESE,122,0.0,4.0,76,0.00,RMK !SN!,RMK !SN!,0.00,WUHU216DAVISVP2,2013-01-25 07:33:00,
2013-01-25 02:40:00,12.1,6.0,30.55,ESE,103,0.0,4.0,76,0.00,RMK !SN!,RMK !SN!,0.00,WUHU216DAVISVP2,2013-01-25 07:40:00,
2013-01-25 02:44:00,12.2,6.1,30.55,ESE,103,0.0,3.0,76,0.00,RMK !SN!,RMK !SN!,0.00,WUHU216DAVISVP2,2013-01-25 07:44:00,
2013-01-25 02:49:00,12.2,6.1,30.55,SSE,148,0.0,3.0,76,0.00,RMK !SN!,RMK !SN!,0.00,WUHU216DAVISVP2,2013-01-25 07:49:00,
2013-01-25 02:54:00,12.3,6.2,30.55,NE,35,1.0,3.0,76,0.00,RMK !SN!,RMK !SN!,0.00,WUHU216DAVISVP2,2013-01-25 07:54:00,
2013-01-25 02:59:00,12.3,6.2,30.55,NNE,23,0.0,3.0,76,0.00,RMK !SN!,RMK !SN!,0.00,WUHU216DAVISVP2,2013-01-25 07:59:00,
2013-01-25 03:04:00,12.4,6.0,30.55,ENE,67,2.0,3.0,75,0.00,RMK !SN!,RMK !SN!,0.00,WUHU216DAVISVP2,2013-01-25 08:04:00,
2013-01-25 03:09:00,12.4,6.0,30.54,NNW,328,1.0,3.0,75,0.00,RMK !SN!,RMK !SN!,0.00,WUHU216DAVISVP2,2013-01-25 08:09:00,
2013-01-25 03:14:00,12.5,5.8,30.54,NNE,32,1.0,3.0,74,0.00,RMK !SN!,RMK !SN!,0.00,WUHU216DAVISVP2,2013-01-25 08:14:00,
2013-01-25 03:19:00,12.6,5.9,30.53,ENE,68,1.0,3.0,74,0.00,RMK !SN!,RMK !SN!,0.00,WUHU216DAVISVP2,2013-01-25 08:19:00,
2013-01-25 03:24:00,12.6,5.9,30.53,ESE,115,0.0,3.0,74,0.00,RMK !SN!,RMK !SN!,0.00,WUHU216DAVISVP2,2013-01-25 08:24:00,
2013-01-25 03:29:00,12.7,6.0,30.53,NNW,329,0.0,3.0,74,0.00,RMK !SN!,RMK !SN!,0.00,WUHU216DAVISVP2,2013-01-25 08:29:00,
2013-01-25 03:34:00,12.7,5.7,30.53,NNW,330,3.0,5.0,73,0.00,RMK !SN!,RMK !SN!,0.00,WUHU216DAVISVP2,2013-01-25 08:34:00,
2013-01-25 03:39:00,12.7,5.7,30.53,ENE,76,2.0,5.0,73,0.00,RMK !SN!,RMK !SN!,0.00,WUHU216DAVISVP2,2013-01-25 08:39:00,
2013-01-25 03:44:00,12.8,5.8,30.53,NNE,28,0.0,4.0,73,0.00,RMK !SN!,RMK !SN!,0.00,WUHU216DAVISVP2,2013-01-25 08:44:00,
2013-01-25 03:49:00,12.8,5.8,30.53,ENE,64,0.0,4.0,73,0.00,RMK !SN!,RMK !SN!,0.00,WUHU216DAVISVP2,2013-01-25 08:49:00,
2013-01-25 03:54:00,12.9,5.9,30.52,NNW,347,0.0,4.0,73,0.00,RMK !SN!,RMK !SN!,0.00,WUHU216DAVISVP2,2013-01-25 08:54:00,
2013-01-25 03:59:00,12.3,5.0,30.51,WNW,297,2.0,4.0,72,0.00,RMK !SN!,RMK !SN!,0.00,WUHU216DAVISVP2,2013-01-25 08:59:00,
2013-01-25 04:04:00,12.3,5.0,30.51,WNW,297,2.0,4.0,72,0.00,RMK !SN!,RMK !SN!,0.00,WUHU216DAVISVP2,2013-01-25 09:04:00,
2013-01-25 08:57:00,13.4,7.8,30.36,East,98,1.0,1.0,78,0.00,RMK !SN!,RMK !SN!,0.00,WUHU216DAVISVP2,2013-01-25 13:57:00,
2013-01-25 09:02:00,13.3,8.0,30.35,SE,129,1.0,2.0,79,0.00,RMK !SN!,RMK !SN!,0.00,WUHU216DAVISVP2,2013-01-25 14:02:00,
2013-01-25 09:07:00,13.2,8.2,30.35,NW,326,3.0,5.0,80,0.00,RMK !SN!,RMK !SN!,0.00,WUHU216DAVISVP2,2013-01-25 14:07:00,
2013-01-25 09:12:00,13.1,8.4,30.35,NNW,347,0.0,5.0,81,0.00,RMK !SN!,RMK !SN!,0.00,WUHU216DAVISVP2,2013-01-25 14:12:00,
2013-01-25 09:17:00,13.0,8.3,30.35,NNW,331,0.0,6.0,81,0.00,RMK !SN!,RMK !SN!,0.00,WUHU216DAVISVP2,2013-01-25 14:17:00,
2013-01-25 09:22:00,13.0,8.5,30.34,NW,308,0.0,9.0,82,0.00,RMK !SN!,RMK !SN!,0.00,WUHU216DAVISVP2,2013-01-25 14:22:00,
2013-01-25 09:27:00,13.0,8.5,30.33,NNE,12,2.0,9.0,82,0.00,RMK !SN!,RMK !SN!,0.00,WUHU216DAVISVP2,2013-01-25 14:27:00,
2013-01-25 09:32:00,13.0,8.5,30.33,WSW,250,0.0,9.0,82,0.00,RMK !SN!,RMK !SN!,0.00,WUHU216DAVISVP2,2013-01-25 14:32:00,
2013-01-25 09:37:00,13.1,8.6,30.33,NNW,347,1.0,9.0,82,0.00,RMK !SN!,RMK !SN!,0.00,WUHU216DAVISVP2,2013-01-25 14:37:00,
2013-01-25 09:42:00,13.3,8.8,30.32,SW,224,3.0,7.0,82,0.00,RMK !SN!,RMK !SN!,0.00,WUHU216DAVISVP2,2013-01-25 14:42:00,
2013-01-25 09:47:00,13.3,8.6,30.32,NE,39,1.0,7.0,81,0.00,RMK !SN!,RMK !SN!,0.00,WUHU216DAVISVP2,2013-01-25 14:47:00,
2013-01-25 09:52:00,13.3,8.3,30.32,WNW,302,3.0,7.0,80,0.00,RMK !SN!,RMK !SN!,0.00,WUHU216DAVISVP2,2013-01-25 14:52:00,
2013-01-25 09:57:00,13.3,8.3,30.32,NNW,335,5.0,7.0,80,0.00,RMK !SN!,RMK !SN!,0.00,WUHU216DAVISVP2,2013-01-25 14:57:00,
2013-01-25 10:02:00,13.4,8.4,30.32,ENE,78,1.0,8.0,80,0.00,RMK !SN!,RMK !SN!,0.00,WUHU216DAVISVP2,2013-01-25 15:02:00,
2013-01-25 10:08:00,13.4,8.4,30.32,SSE,156,0.0,8.0,80,0.00,RMK !SN!,RMK !SN!,0.00,WUHU216DAVISVP2,2013-01-25 15:08:00,
2013-01-25 10:13:00,13.4,8.7,30.32,SW,231,0.0,8.0,81,0.00,RMK !SN!,RMK !SN!,0.00,WUHU216DAVISVP2,2013-01-25 15:13:00,
2013-01-25 10:18:00,13.4,8.9,30.31,WNW,294,3.0,8.0,82,0.00,RMK !SN!,RMK !SN!,0.00,WUHU216DAVISVP2,2013-01-25 15:18:00,
2013-01-25 10:23:00,13.4,9.2,30.31,ESE,113,1.0,7.0,83,0.00,RMK !SN!,RMK !SN!,0.00,WUHU216DAVISVP2,2013-01-25 15:23:00,
2013-01-25 10:28:00,13.3,9.1,30.31,ENE,60,0.0,10.0,83,0.00,RMK !SN!,RMK !SN!,0.00,WUHU216DAVISVP2,2013-01-25 15:28:00,
2013-01-25 10:33:00,13.3,9.1,30.31,NW,308,3.0,10.0,83,0.00,RMK !SN!,RMK !SN!,0.00,WUHU216DAVISVP2,2013-01-25 15:33:00,
2013-01-25 10:38:00,13.3,9.4,30.30,NNE,22,1.0,9.0,84,0.00,RMK !SN!,RMK !SN!,0.00,WUHU216DAVISVP2,2013-01-25 15:38:00,
2013-01-25 10:43:00,13.5,9.5,30.30,NW,326,3.0,6.0,84,0.00,RMK !SN!,RMK !SN!,0.00,WUHU216DAVISVP2,2013-01-25 15:43:00,
2013-01-25 10:48:00,13.4,9.2,30.30,South,183,0.0,8.0,83,0.00,RMK !SN!,RMK !SN!,0.00,WUHU216DAVISVP2,2013-01-25 15:48:00,
2013-01-25 10:53:00,13.5,9.6,30.30,WNW,288,1.0,8.0,84,0.00,RMK !SN!,RMK !SN!,0.00,WUHU216DAVISVP2,2013-01-25 15:53:00,
2013-01-25 10:58:00,13.5,9.5,30.29,WSW,252,1.0,8.0,84,0.00,RMK !SN!,RMK !SN!,0.00,WUHU216DAVISVP2,2013-01-25 15:58:00,
2013-01-25 11:03:00,13.4,9.4,30.29,WSW,256,3.0,8.0,84,0.00,RMK !SN!,RMK !SN!,0.00,WUHU216DAVISVP2,2013-01-25 16:03:00,
2013-01-25 11:08:00,13.4,9.5,30.28,SW,215,2.0,8.0,84,0.00,RMK !SN!,RMK !SN!,0.00,WUHU216DAVISVP2,2013-01-25 16:08:00,
2013-01-25 11:13:00,13.4,9.4,30.26,West,268,3.0,8.0,84,0.00,RMK !SN!,RMK !SN!,0.00,WUHU216DAVISVP2,2013-01-25 16:13:00,
2013-01-25 11:18:00,13.5,9.5,30.26,SW,234,5.0,8.0,84,0.00,RMK !SN!,RMK !SN!,0.00,WUHU216DAVISVP2,2013-01-25 16:18:00,
2013-01-25 11:23:00,13.5,9.5,30.26,West,271,0.0,8.0,84,0.00,RMK !SN!,RMK !SN!,0.00,WUHU216DAVISVP2,2013-01-25 16:23:00,
2013-01-25 11:28:00,13.6,9.6,30.26,SW,218,2.0,9.0,84,0.00,RMK !SN!,RMK !SN!,0.00,WUHU216DAVISVP2,2013-01-25 16:28:00,
2013-01-25 11:33:00,13.5,9.3,30.25,SW,214,1.0,9.0,83,0.00,RMK !SN!,RMK !SN!,0.00,WUHU216DAVISVP2,2013-01-25 16:33:00,
2013-01-25 11:38:00,13.7,9.7,30.25,West,274,0.0,8.0,84,0.00,RMK !SN!,RMK !SN!,0.00,WUHU216DAVISVP2,2013-01-25 16:38:00,
2013-01-25 11:43:00,13.7,9.7,30.25,SE,143,1.0,8.0,84,0.00,RMK !SN!,RMK !SN!,0.00,WUHU216DAVISVP2,2013-01-25 16:43:00,
2013-01-25 11:48:00,13.6,9.6,30.24,SSE,164,0.0,6.0,84,0.00,RMK !SN!,RMK !SN!,0.00,WUHU216DAVISVP2,2013-01-25 16:48:00,
2013-01-25 11:53:00,13.7,10.0,30.24,WSW,253,2.0,7.0,85,0.00,RMK !SN!,RMK !SN!,0.00,WUHU216DAVISVP2,2013-01-25 16:53:00,
2013-01-25 11:58:00,13.7,10.0,30.24,NW,314,2.0,7.0,85,0.00,RMK !SN!,RMK !SN!,0.00,WUHU216DAVISVP2,2013-01-25 16:58:00,
2013-01-25 12:03:00,13.6,9.9,30.24,South,170,0.0,8.0,85,0.00,RMK !SN!,RMK !SN!,0.00,WUHU216DAVISVP2,2013-01-25 17:03:00,
2013-01-25 12:08:00,13.8,10.4,30.24,SW,225,0.0,8.0,86,0.00,RMK !SN!,RMK !SN!,0.00,WUHU216DAVISVP2,2013-01-25 17:08:00,
2013-01-25 12:13:00,13.9,10.2,30.24,WSW,240,2.0,8.0,85,0.00,RMK !SN!,RMK !SN!,0.00,WUHU216DAVISVP2,2013-01-25 17:13:00,
2013-01-25 12:18:00,13.9,10.2,30.24,NNW,347,2.0,7.0,85,0.00,RMK !SN!,RMK !SN!,0.00,WUHU216DAVISVP2,2013-01-25 17:18:00,
2013-01-25 12:23:00,14.2,10.5,30.24,ESE,117,0.0,7.0,85,0.00,RMK !SN!,RMK !SN!,0.00,WUHU216DAVISVP2,2013-01-25 17:23:00,
2013-01-25 12:28:00,14.3,10.6,30.23,ENE,70,1.0,6.0,85,0.00,RMK !SN!,RMK !SN!,0.00,WUHU216DAVISVP2,2013-01-25 17:28:00,
2013-01-25 12:33:00,14.4,10.4,30.23,ENE,62,2.0,6.0,84,0.00,RMK !SN!,RMK !SN!,0.00,WUHU216DAVISVP2,2013-01-25 17:33:00,
2013-01-25 12:38:00,14.3,10.1,30.22,NW,315,0.0,9.0,83,0.00,RMK !SN!,RMK !SN!,0.00,WUHU216DAVISVP2,2013-01-25 17:38:00,
2013-01-25 12:43:00,14.2,10.3,30.22,WNW,301,0.0,9.0,84,0.00,RMK !SN!,RMK !SN!,0.00,WUHU216DAVISVP2,2013-01-25 17:43:00,
2013-01-25 12:48:00,14.2,10.5,30.21,SE,146,0.0,8.0,85,0.00,RMK !SN!,RMK !SN!,0.00,WUHU216DAVISVP2,2013-01-25 17:48:00,
2013-01-25 12:53:00,14.3,10.6,30.21,WNW,287,2.0,8.0,85,0.00,RMK !SN!,RMK !SN!,0.00,WUHU216DAVISVP2,2013-01-25 17:53:00,
2013-01-25 12:58:00,14.3,10.6,30.21,NNW,348,0.0,8.0,85,0.00,RMK !SN!,RMK !SN!,0.00,WUHU216DAVISVP2,2013-01-25 17:58:00,
2013-01-25 13:03:00,14.5,10.8,30.21,NW,319,3.0,8.0,85,0.00,RMK !SN!,RMK !SN!,0.00,WUHU216DAVISVP2,2013-01-25 18:03:00,
2013-01-25 13:08:00,14.4,10.7,30.21,North,11,4.0,9.0,85,0.00,RMK !SN!,RMK !SN!,0.00,WUHU216DAVISVP2,2013-01-25 18:08:00,
2013-01-25 13:14:00,14.5,10.8,30.20,NNE,12,2.0,9.0,85,0.00,RMK !SN!,RMK !SN!,0.00,WUHU216DAVISVP2,2013-01-25 18:14:00,
2013-01-25 13:19:00,14.7,11.0,30.19,SSE,166,0.0,9.0,85,0.00,RMK !SN!,RMK !SN!,0.00,WUHU216DAVISVP2,2013-01-25 18:19:00,
2013-01-25 13:24:00,14.9,11.2,30.19,SSE,165,1.0,9.0,85,0.00,RMK !SN!,RMK !SN!,0.00,WUHU216DAVISVP2,2013-01-25 18:24:00,
2013-01-25 13:29:00,14.9,11.2,30.19,SW,233,0.0,7.0,85,0.00,RMK !SN!,RMK !SN!,0.00,WUHU216DAVISVP2,2013-01-25 18:29:00,
2013-01-25 13:34:00,15.1,11.1,30.18,SSE,165,0.0,7.0,84,0.00,RMK !SN!,RMK !SN!,0.00,WUHU216DAVISVP2,2013-01-25 18:34:00,
2013-01-25 13:39:00,15.1,10.8,30.18,SSE,155,0.0,6.0,83,0.00,RMK !SN!,RMK !SN!,0.00,WUHU216DAVISVP2,2013-01-25 18:39:00,
2013-01-25 13:44:00,15.4,11.1,30.18,NNW,330,0.0,5.0,83,0.00,RMK !SN!,RMK !SN!,0.00,WUHU216DAVISVP2,2013-01-25 18:44:00,
2013-01-25 13:49:00,15.6,11.3,30.18,SSE,148,0.0,5.0,83,0.00,RMK !SN!,RMK !SN!,0.00,WUHU216DAVISVP2,2013-01-25 18:49:00,
2013-01-25 13:54:00,16.3,12.3,30.17,NNW,327,2.0,5.0,84,0.00,RMK !SN!,RMK !SN!,0.00,WUHU216DAVISVP2,2013-01-25 18:54:00,
2013-01-25 13:59:00,16.3,11.8,30.17,NE,46,0.0,6.0,82,0.00,RMK !SN!,RMK !SN!,0.00,WUHU216DAVISVP2,2013-01-25 18:59:00,
2013-01-25 14:04:00,16.5,11.7,30.17,ENE,58,1.0,6.0,81,0.00,RMK !SN!,RMK !SN!,0.00,WUHU216DAVISVP2,2013-01-25 19:04:00,
2013-01-25 14:09:00,16.6,12.0,30.16,West,276,1.0,6.0,82,0.00,RMK !SN!,RMK !SN!,0.00,WUHU216DAVISVP2,2013-01-25 19:09:00,
2013-01-25 14:14:00,16.6,11.8,30.17,North,351,5.0,6.0,81,0.00,RMK !SN!,RMK !SN!,0.00,WUHU216DAVISVP2,2013-01-25 19:14:00,
2013-01-25 14:19:00,16.6,11.8,30.16,NNW,331,0.0,7.0,81,0.00,RMK !SN!,RMK !SN!,0.00,WUHU216DAVISVP2,2013-01-25 19:19:00,
2013-01-25 14:24:00,17.0,12.4,30.16,SW,236,1.0,7.0,82,0.00,RMK !SN!,RMK !SN!,0.00,WUHU216DAVISVP2,2013-01-25 19:24:00,
2013-01-25 14:29:00,17.1,12.3,30.16,NW,305,0.0,6.0,81,0.00,RMK !SN!,RMK !SN!,0.00,WUHU216DAVISVP2,2013-01-25 19:29:00,
2013-01-25 14:34:00,17.2,12.4,30.15,WNW,300,1.0,7.0,81,0.00,RMK !SN!,RMK !SN!,0.00,WUHU216DAVISVP2,2013-01-25 19:34:00,
2013-01-25 14:39:00,17.1,12.0,30.15,SW,229,1.0,7.0,80,0.00,RMK !SN!,RMK !SN!,0.00,WUHU216DAVISVP2,2013-01-25 19:39:00,
2013-01-25 14:44:00,17.1,12.0,30.15,East,98,1.0,6.0,80,0.00,RMK !SN!,RMK !SN!,0.00,WUHU216DAVISVP2,2013-01-25 19:44:00,
2013-01-25 14:49:00,17.2,12.1,30.15,NE,46,2.0,6.0,80,0.00,RMK !SN!,RMK !SN!,0.00,WUHU216DAVISVP2,2013-01-25 19:49:00,
2013-01-25 14:54:00,17.3,12.2,30.15,SW,221,0.0,6.0,80,0.00,RMK !SN!,RMK !SN!,0.00,WUHU216DAVISVP2,2013-01-25 19:54:00,
2013-01-25 14:59:00,17.1,11.7,30.15,NNE,27,2.0,5.0,79,0.00,RMK !SN!,RMK !SN!,0.00,WUHU216DAVISVP2,2013-01-25 19:59:00,
2013-01-25 15:04:00,17.3,11.9,30.14,WNW,290,0.0,6.0,79,0.00,RMK !SN!,RMK !SN!,0.00,WUHU216DAVISVP2,2013-01-25 20:04:00,
2013-01-25 15:09:00,17.4,12.3,30.14,SSE,167,0.0,6.0,80,0.00,RMK !SN!,RMK !SN!,0.00,WUHU216DAVISVP2,2013-01-25 20:09:00,
2013-01-25 15:14:00,17.3,11.9,30.14,SSE,167,2.0,5.0,79,0.00,RMK !SN!,RMK !SN!,0.00,WUHU216DAVISVP2,2013-01-25 20:14:00,
2013-01-25 15:19:00,17.0,11.6,30.14,SSE,152,0.0,5.0,79,0.00,RMK !SN!,RMK !SN!,0.00,WUHU216DAVISVP2,2013-01-25 20:19:00,
2013-01-25 15:24:00,17.2,12.1,30.14,NNE,32,3.0,5.0,80,0.00,RMK !SN!,RMK !SN!,0.00,WUHU216DAVISVP2,2013-01-25 20:24:00,
2013-01-25 15:29:00,17.4,12.3,30.14,NNE,26,2.0,5.0,80,0.00,RMK !SN!,RMK !SN!,0.00,WUHU216DAVISVP2,2013-01-25 20:29:00,
2013-01-25 15:34:00,17.6,12.2,30.13,NE,55,3.0,5.0,79,0.00,RMK !SN!,RMK !SN!,0.00,WUHU216DAVISVP2,2013-01-25 20:34:00,
2013-01-25 15:39:00,17.4,11.7,30.13,WNW,301,2.0,8.0,78,0.00,RMK !SN!,RMK !SN!,0.00,WUHU216DAVISVP2,2013-01-25 20:39:00,
2013-01-25 15:44:00,17.3,12.2,30.13,WSW,254,0.0,8.0,80,0.00,RMK !SN!,RMK !SN!,0.00,WUHU216DAVISVP2,2013-01-25 20:44:00,
2013-01-25 15:49:00,17.5,12.4,30.13,NE,54,1.0,8.0,80,0.00,RMK !SN!,RMK !SN!,0.00,WUHU216DAVISVP2,2013-01-25 20:49:00,
2013-01-25 15:54:00,17.4,12.0,30.13,WNW,293,1.0,8.0,79,0.00,RMK !SN!,RMK !SN!,0.00,WUHU216DAVISVP2,2013-01-25 20:54:00,
2013-01-25 15:59:00,17.1,11.7,30.12,NNW,335,4.0,6.0,79,0.00,RMK !SN!,RMK !SN!,0.00,WUHU216DAVISVP2,2013-01-25 20:59:00,
2013-01-25 16:04:00,17.1,12.3,30.12,ESE,110,0.0,6.0,81,0.00,RMK !SN!,RMK !SN!,0.00,WUHU216DAVISVP2,2013-01-25 21:04:00,
2013-01-25 16:09:00,17.1,12.0,30.13,NNE,19,4.0,6.0,80,0.00,RMK !SN!,RMK !SN!,0.00,WUHU216DAVISVP2,2013-01-25 21:09:00,
2013-01-25 16:14:00,17.0,12.2,30.13,SSE,149,0.0,6.0,81,0.00,RMK !SN!,RMK !SN!,0.00,WUHU216DAVISVP2,2013-01-25 21:14:00,
2013-01-25 16:19:00,17.0,12.2,30.13,NW,319,2.0,5.0,81,0.00,RMK !SN!,RMK !SN!,0.00,WUHU216DAVISVP2,2013-01-25 21:19:00,
2013-01-25 16:24:00,16.8,11.7,30.13,NNW,340,3.0,5.0,80,0.00,RMK !SN!,RMK !SN!,0.00,WUHU216DAVISVP2,2013-01-25 21:24:00,
2013-01-25 16:29:00,16.6,11.5,30.13,East,100,0.0,5.0,80,0.00,RMK !SN!,RMK !SN!,0.00,WUHU216DAVISVP2,2013-01-25 21:29:00,
2013-01-25 16:34:00,16.4,11.6,30.13,ENE,60,0.0,6.0,81,0.00,RMK !SN!,RMK !SN!,0.00,WUHU216DAVISVP2,2013-01-25 21:34:00,
2013-01-25 16:39:00,16.5,11.7,30.13,NNE,26,2.0,6.0,81,0.00,RMK !SN!,RMK !SN!,0.00,WUHU216DAVISVP2,2013-01-25 21:39:00,
2013-01-25 16:45:00,16.4,11.9,30.13,NNE,30,6.0,6.0,82,0.00,RMK !SN!,RMK !SN!,0.00,WUHU216DAVISVP2,2013-01-25 21:45:00,
2013-01-25 16:50:00,16.3,11.8,30.13,NE,38,1.0,6.0,82,0.00,RMK !SN!,RMK !SN!,0.00,WUHU216DAVISVP2,2013-01-25 21:50:00,
2013-01-25 16:55:00,16.4,12.1,30.13,NW,316,1.0,5.0,83,0.00,RMK !SN!,RMK !SN!,0.00,WUHU216DAVISVP2,2013-01-25 21:55:00,
2013-01-25 17:00:00,16.4,12.1,30.13,ENE,60,0.0,5.0,83,0.00,RMK !SN!,RMK !SN!,0.00,WUHU216DAVISVP2,2013-01-25 22:00:00,
2013-01-25 17:05:00,16.4,12.1,30.13,ENE,60,1.0,3.0,83,0.00,RMK !SN!,RMK !SN!,0.00,WUHU216DAVISVP2,2013-01-25 22:05:00,
2013-01-25 17:10:00,16.3,12.0,30.13,NNW,344,1.0,5.0,83,0.00,RMK !SN!,RMK !SN!,0.00,WUHU216DAVISVP2,2013-01-25 22:10:00,
2013-01-25 17:15:00,16.3,12.0,30.13,North,359,0.0,5.0,83,0.00,RMK !SN!,RMK !SN!,0.00,WUHU216DAVISVP2,2013-01-25 22:15:00,
2013-01-25 17:20:00,16.3,12.0,30.13,NNE,28,1.0,4.0,83,0.00,RMK !SN!,RMK !SN!,0.00,WUHU216DAVISVP2,2013-01-25 22:20:00,
2013-01-25 17:25:00,16.3,12.3,30.13,ENE,60,2.0,4.0,84,0.00,RMK !SN!,RMK !SN!,0.00,WUHU216DAVISVP2,2013-01-25 22:25:00,
2013-01-25 17:30:00,16.3,12.3,30.13,East,89,1.0,3.0,84,0.00,RMK !SN!,RMK !SN!,0.00,WUHU216DAVISVP2,2013-01-25 22:30:00,
2013-01-25 17:35:00,16.2,12.2,30.13,ENE,64,1.0,2.0,84,0.00,RMK !SN!,RMK !SN!,0.00,WUHU216DAVISVP2,2013-01-25 22:35:00,
2013-01-25 17:40:00,16.2,12.2,30.12,North,10,1.0,2.0,84,0.00,RMK !SN!,RMK !SN!,0.00,WUHU216DAVISVP2,2013-01-25 22:40:00,
2013-01-25 17:45:00,16.1,12.1,30.12,NNE,33,2.0,3.0,84,0.00,RMK !SN!,RMK !SN!,0.00,WUHU216DAVISVP2,2013-01-25 22:45:00,
2013-01-25 17:50:00,16.0,12.0,30.12,NNE,23,2.0,4.0,84,0.00,RMK !SN!,RMK !SN!,0.00,WUHU216DAVISVP2,2013-01-25 22:50:00,
2013-01-25 17:55:00,15.9,11.9,30.12,ENE,73,1.0,4.0,84,0.00,RMK !SN!,RMK !SN!,0.00,WUHU216DAVISVP2,2013-01-25 22:55:00,
2013-01-25 18:00:00,15.9,12.2,30.12,NNE,29,1.0,4.0,85,0.00,RMK !SN!,RMK !SN!,0.00,WUHU216DAVISVP2,2013-01-25 23:00:00,
2013-01-25 18:05:00,15.9,12.2,30.13,East,86,0.0,4.0,85,0.00,RMK !SN!,RMK !SN!,0.00,WUHU216DAVISVP2,2013-01-25 23:05:00,
2013-01-25 18:10:00,16.0,12.3,30.13,East,84,0.0,3.0,85,0.00,RMK !SN!,RMK !SN!,0.00,WUHU216DAVISVP2,2013-01-25 23:10:00,
2013-01-25 18:15:00,15.9,11.9,30.13,ENE,65,0.0,3.0,84,0.00,RMK !SN!,RMK !SN!,0.00,WUHU216DAVISVP2,2013-01-25 23:15:00,
2013-01-25 18:20:00,15.9,12.2,30.14,ENE,58,1.0,3.0,85,0.00,RMK !SN!,RMK !SN!,0.00,WUHU216DAVISVP2,2013-01-25 23:20:00,
2013-01-25 18:25:00,15.9,12.2,30.14,WNW,290,1.0,4.0,85,0.00,RMK !SN!,RMK !SN!,0.00,WUHU216DAVISVP2,2013-01-25 23:25:00,
2013-01-25 18:30:00,15.8,12.1,30.14,NNE,18,2.0,4.0,85,0.00,RMK !SN!,RMK !SN!,0.00,WUHU216DAVISVP2,2013-01-25 23:30:00,
2013-01-25 18:35:00,15.8,12.1,30.13,ENE,65,0.0,4.0,85,0.00,RMK !SN!,RMK !SN!,0.00,WUHU216DAVISVP2,2013-01-25 23:35:00,
2013-01-25 18:40:00,15.8,12.1,30.13,NW,326,1.0,4.0,85,0.00,RMK !SN!,RMK !SN!,0.00,WUHU216DAVISVP2,2013-01-25 23:40:00,
2013-01-25 18:45:00,15.7,12.0,30.13,ESE,108,0.0,5.0,85,0.00,RMK !SN!,RMK !SN!,0.00,WUHU216DAVISVP2,2013-01-25 23:45:00,
2013-01-25 18:50:00,15.7,12.0,30.13,East,98,0.0,5.0,85,0.00,RMK !SN!,RMK !SN!,0.00,WUHU216DAVISVP2,2013-01-25 23:50:00,
2013-01-25 18:55:00,15.8,12.1,30.13,ESE,113,0.0,5.0,85,0.00,RMK !SN!,RMK !SN!,0.00,WUHU216DAVISVP2,2013-01-25 23:55:00,
2013-01-25 19:00:00,15.7,12.0,30.13,NE,34,4.0,5.0,85,0.00,RMK !SN!,RMK !SN!,0.00,WUHU216DAVISVP2,2013-01-26 00:00:00,
2013-01-25 19:05:00,15.7,12.0,30.13,NNW,328,2.0,6.0,85,0.00,RMK !SN!,RMK !SN!,0.00,WUHU216DAVISVP2,2013-01-26 00:05:00,
2013-01-25 19:10:00,15.6,11.9,30.13,NNE,29,3.0,6.0,85,0.00,RMK !SN!,RMK !SN!,0.00,WUHU216DAVISVP2,2013-01-26 00:10:00,
2013-01-25 19:15:00,15.6,11.9,30.13,East,86,0.0,6.0,85,0.00,RMK !SN!,RMK !SN!,0.00,WUHU216DAVISVP2,2013-01-26 00:15:00,
2013-01-25 19:20:00,15.6,11.9,30.13,ENE,69,1.0,6.0,85,0.00,RMK !SN!,RMK !SN!,0.00,WUHU216DAVISVP2,2013-01-26 00:20:00,
2013-01-25 19:25:00,15.6,11.9,30.13,East,93,0.0,5.0,85,0.00,RMK !SN!,RMK !SN!,0.00,WUHU216DAVISVP2,2013-01-26 00:25:00,
2013-01-25 19:30:00,15.7,12.0,30.13,NNE,15,2.0,5.0,85,0.00,RMK !SN!,RMK !SN!,0.00,WUHU216DAVISVP2,2013-01-26 00:30:00,
2013-01-25 19:35:00,15.6,11.9,30.13,NNE,14,4.0,5.0,85,0.00,RMK !SN!,RMK !SN!,0.00,WUHU216DAVISVP2,2013-01-26 00:35:00,
2013-01-25 19:40:00,15.6,11.9,30.14,NNE,12,2.0,6.0,85,0.00,RMK !SN!,RMK !SN!,0.00,WUHU216DAVISVP2,2013-01-26 00:40:00,
2013-01-25 19:45:00,15.6,11.9,30.14,NNW,333,4.0,6.0,85,0.00,RMK !SN!,RMK !SN!,0.00,WUHU216DAVISVP2,2013-01-26 00:45:00,
2013-01-25 19:50:00,15.5,11.8,30.14,North,355,0.0,6.0,85,0.00,RMK !SN!,RMK !SN!,0.00,WUHU216DAVISVP2,2013-01-26 00:50:00,
2013-01-25 19:55:00,15.6,11.9,30.13,NNE,32,2.0,6.0,85,0.00,RMK !SN!,RMK !SN!,0.00,WUHU216DAVISVP2,2013-01-26 00:55:00,
2013-01-25 20:00:00,15.6,12.1,30.13,ENE,78,0.0,6.0,86,0.00,RMK !SN!,RMK !SN!,0.00,WUHU216DAVISVP2,2013-01-26 01:00:00,
2013-01-25 20:05:00,15.6,12.1,30.14,NE,51,0.0,6.0,86,0.00,RMK !SN!,RMK !SN!,0.00,WUHU216DAVISVP2,2013-01-26 01:05:00,
2013-01-25 20:10:00,15.6,12.1,30.14,ESE,105,0.0,5.0,86,0.00,RMK !SN!,RMK !SN!,0.00,WUHU216DAVISVP2,2013-01-26 01:10:00,
2013-01-25 20:15:00,15.6,12.2,30.14,North,353,1.0,4.0,86,0.00,RMK !SN!,RMK !SN!,0.00,WUHU216DAVISVP2,2013-01-26 01:15:00,
2013-01-25 20:20:00,15.6,12.1,30.14,NE,51,1.0,4.0,86,0.00,RMK !SN!,RMK !SN!,0.00,WUHU216DAVISVP2,2013-01-26 01:20:00,
2013-01-25 20:25:00,15.7,12.3,30.14,ENE,73,2.0,4.0,86,0.00,RMK !SN!,RMK !SN!,0.00,WUHU216DAVISVP2,2013-01-26 01:25:00,
2013-01-25 20:30:00,15.7,12.2,30.13,NE,53,2.0,4.0,86,0.00,RMK !SN!,RMK !SN!,0.00,WUHU216DAVISVP2,2013-01-26 01:30:00,
2013-01-25 20:35:00,15.7,12.2,30.14,NE,39,3.0,5.0,86,0.00,RMK !SN!,RMK !SN!,0.00,WUHU216DAVISVP2,2013-01-26 01:35:00,
2013-01-25 20:40:00,15.8,12.4,30.14,NW,319,0.0,5.0,86,0.00,RMK !SN!,RMK !SN!,0.00,WUHU216DAVISVP2,2013-01-26 01:40:00,
2013-01-25 20:45:00,15.8,12.3,30.14,NW,316,1.0,4.0,86,0.00,RMK !SN!,RMK !SN!,0.00,WUHU216DAVISVP2,2013-01-26 01:45:00,
2013-01-25 20:50:00,15.8,12.3,30.14,NE,55,0.0,4.0,86,0.00,RMK !SN!,RMK !SN!,0.00,WUHU216DAVISVP2,2013-01-26 01:50:00,
2013-01-25 20:55:00,15.8,12.3,30.14,WNW,302,1.0,4.0,86,0.00,RMK !SN!,RMK !SN!,0.00,WUHU216DAVISVP2,2013-01-26 01:55:00,
2013-01-25 21:00:00,15.9,12.7,30.14,ENE,68,2.0,4.0,87,0.00,RMK !SN!,RMK !SN!,0.00,WUHU216DAVISVP2,2013-01-26 02:00:00,
2013-01-25 21:05:00,15.9,12.7,30.14,East,100,0.0,5.0,87,0.00,RMK !SN!,RMK !SN!,0.00,WUHU216DAVISVP2,2013-01-26 02:05:00,
2013-01-25 21:10:00,15.9,12.7,30.14,ENE,67,1.0,5.0,87,0.00,RMK !SN!,RMK !SN!,0.00,WUHU216DAVISVP2,2013-01-26 02:10:00,
2013-01-25 21:15:00,15.9,12.7,30.14,East,79,0.0,4.0,87,0.00,RMK !SN!,RMK !SN!,0.00,WUHU216DAVISVP2,2013-01-26 02:15:00,
2013-01-25 21:20:00,15.9,12.7,30.14,East,98,0.0,4.0,87,0.00,RMK !SN!,RMK !SN!,0.00,WUHU216DAVISVP2,2013-01-26 02:20:00,
2013-01-25 21:25:00,15.8,12.6,30.14,East,86,0.0,3.0,87,0.00,RMK !SN!,RMK !SN!,0.00,WUHU216DAVISVP2,2013-01-26 02:25:00,
2013-01-25 21:30:00,15.9,13.0,30.15,East,80,2.0,3.0,88,0.00,RMK !SN!,RMK !SN!,0.00,WUHU216DAVISVP2,2013-01-26 02:30:00,
2013-01-25 21:35:00,15.9,12.9,30.15,East,89,0.0,2.0,88,0.00,RMK !SN!,RMK !SN!,0.00,WUHU216DAVISVP2,2013-01-26 02:35:00,
2013-01-25 21:40:00,15.9,12.9,30.15,East,92,0.0,2.0,88,0.00,RMK !SN!,RMK !SN!,0.00,WUHU216DAVISVP2,2013-01-26 02:40:00,
2013-01-25 21:46:00,15.9,12.9,30.15,NNW,333,0.0,2.0,88,0.00,RMK !SN!,RMK !SN!,0.00,WUHU216DAVISVP2,2013-01-26 02:46:00,
2013-01-25 21:51:00,15.9,13.0,30.15,East,84,0.0,4.0,88,0.00,RMK !SN!,RMK !SN!,0.00,WUHU216DAVISVP2,2013-01-26 02:51:00,
2013-01-25 21:56:00,15.9,12.9,30.16,East,85,0.0,4.0,88,0.00,RMK !SN!,RMK !SN!,0.00,WUHU216DAVISVP2,2013-01-26 02:56:00,
2013-01-25 22:01:00,15.9,12.9,30.16,East,89,0.0,4.0,88,0.00,RMK !SN!,RMK !SN!,0.00,WUHU216DAVISVP2,2013-01-26 03:01:00,
2013-01-25 22:06:00,15.9,13.2,30.16,East,93,0.0,4.0,89,0.00,RMK !SN!,RMK !SN!,0.00,WUHU216DAVISVP2,2013-01-26 03:06:00,
2013-01-25 22:11:00,15.9,13.2,30.16,ENE,78,1.0,3.0,89,0.00,RMK !SN!,RMK !SN!,0.00,WUHU216DAVISVP2,2013-01-26 03:11:00,
2013-01-25 22:16:00,15.9,13.2,30.16,ENE,67,1.0,4.0,89,0.00,RMK !SN!,RMK !SN!,0.00,WUHU216DAVISVP2,2013-01-26 03:16:00,
2013-01-25 22:21:00,15.9,13.2,30.16,ENE,74,2.0,4.0,89,0.00,RMK !SN!,RMK !SN!,0.00,WUHU216DAVISVP2,2013-01-26 03:21:00,
2013-01-25 22:26:00,15.9,13.2,30.16,NNE,27,2.0,3.0,89,0.00,RMK !SN!,RMK !SN!,0.00,WUHU216DAVISVP2,2013-01-26 03:26:00,
2013-01-25 22:31:00,15.9,13.2,30.16,NNE,23,2.0,3.0,89,0.00,RMK !SN!,RMK !SN!,0.00,WUHU216DAVISVP2,2013-01-26 03:31:00,
2013-01-25 22:36:00,15.9,13.2,30.16,NNE,23,2.0,4.0,89,0.00,RMK !SN!,RMK !SN!,0.00,WUHU216DAVISVP2,2013-01-26 03:36:00,
2013-01-25 22:41:00,15.9,13.2,30.16,NNE,27,3.0,5.0,89,0.00,RMK !SN!,RMK !SN!,0.00,WUHU216DAVISVP2,2013-01-26 03:41:00,
2013-01-25 22:46:00,16.0,13.3,30.16,East,87,0.0,5.0,89,0.00,RMK !SN!,RMK !SN!,0.00,WUHU216DAVISVP2,2013-01-26 03:46:00,
2013-01-25 22:51:00,16.0,13.3,30.16,East,81,0.0,4.0,89,0.00,RMK !SN!,RMK !SN!,0.00,WUHU216DAVISVP2,2013-01-26 03:51:00,
2013-01-25 22:56:00,16.0,13.3,30.16,East,80,0.0,4.0,89,0.00,RMK !SN!,RMK !SN!,0.00,WUHU216DAVISVP2,2013-01-26 03:56:00,
2013-01-25 23:01:00,16.0,13.3,30.16,NW,325,2.0,3.0,89,0.00,RMK !SN!,RMK !SN!,0.00,WUHU216DAVISVP2,2013-01-26 04:01:00,
2013-01-25 23:06:00,16.0,13.3,30.16,NE,36,3.0,4.0,89,0.00,RMK !SN!,RMK !SN!,0.00,WUHU216DAVISVP2,2013-01-26 04:06:00,
2013-01-25 23:11:00,16.1,13.6,30.16,East,98,0.0,4.0,90,0.00,RMK !SN!,RMK !SN!,0.00,WUHU216DAVISVP2,2013-01-26 04:11:00,
2013-01-25 23:16:00,16.1,13.6,30.16,NNW,328,0.0,4.0,90,0.00,RMK !SN!,RMK !SN!,0.00,WUHU216DAVISVP2,2013-01-26 04:16:00,
2013-01-25 23:21:00,16.2,13.8,30.16,NNE,26,1.0,4.0,90,0.00,RMK !SN!,RMK !SN!,0.00,WUHU216DAVISVP2,2013-01-26 04:21:00,
2013-01-25 23:26:00,16.1,13.6,30.16,NNE,28,1.0,3.0,90,0.00,RMK !SN!,RMK !SN!,0.00,WUHU216DAVISVP2,2013-01-26 04:26:00,
2013-01-25 23:31:00,16.2,13.8,30.16,ENE,78,0.0,3.0,90,0.00,RMK !SN!,RMK !SN!,0.00,WUHU216DAVISVP2,2013-01-26 04:31:00,
2013-01-25 23:36:00,16.2,13.7,30.16,NNW,344,1.0,2.0,90,0.00,RMK !SN!,RMK !SN!,0.00,WUHU216DAVISVP2,2013-01-26 04:36:00,
2013-01-25 23:42:00,16.3,13.9,30.16,ENE,60,0.0,3.0,90,0.00,RMK !SN!,RMK !SN!,0.00,WUHU216DAVISVP2,2013-01-26 04:42:00,
2013-01-25 23:47:00,16.3,13.8,30.16,NNE,32,0.0,3.0,90,0.00,RMK !SN!,RMK !SN!,0.00,WUHU216DAVISVP2,2013-01-26 04:47:00,
2013-01-25 23:52:00,16.3,13.8,30.16,ENE,60,0.0,3.0,90,0.00,RMK !SN!,RMK !SN!,0.00,WUHU216DAVISVP2,2013-01-26 04:52:00,
2013-01-25 23:57:00,16.3,13.8,30.16,NNW,335,0.0,2.0,90,0.00,RMK !SN!,RMK !SN!,0.00,WUHU216DAVISVP2,2013-01-26 04:57:00,